sensor_id;sensor_type;location;lat;lon;timestamp;P1;durP1;ratioP1;P2;durP2;ratioP2
41043;SDS011;51680;49.806;18.774;2023-05-07T00:00:35;12.80;;;9.35;;
41043;SDS011;51680;49.806;18.774;2023-05-07T00:03:57;12.63;;;9.05;;
41043;SDS011;51680;49.806;18.774;2023-05-07T00:06:58;14.60;;;9.48;;
41043;SDS011;51680;49.806;18.774;2023-05-07T00:10:00;12.90;;;9.25;;
41043;SDS011;51680;49.806;18.774;2023-05-07T00:13:02;12.55;;;9.02;;
41043;SDS011;51680;49.806;18.774;2023-05-07T00:16:04;14.65;;;9.25;;
41043;SDS011;51680;49.806;18.774;2023-05-07T00:19:07;15.15;;;9.00;;
41043;SDS011;51680;49.806;18.774;2023-05-07T00:22:09;11.80;;;8.23;;
41043;SDS011;51680;49.806;18.774;2023-05-07T00:25:10;13.07;;;8.10;;
41043;SDS011;51680;49.806;18.774;2023-05-07T00:28:12;11.13;;;8.02;;
41043;SDS011;51680;49.806;18.774;2023-05-07T00:31:14;11.55;;;7.82;;
41043;SDS011;51680;49.806;18.774;2023-05-07T00:34:17;10.80;;;7.88;;
41043;SDS011;51680;49.806;18.774;2023-05-07T00:37:19;12.15;;;7.75;;
41043;SDS011;51680;49.806;18.774;2023-05-07T00:40:21;11.40;;;7.57;;
41043;SDS011;51680;49.806;18.774;2023-05-07T00:43:23;11.50;;;7.90;;
41043;SDS011;51680;49.806;18.774;2023-05-07T00:46:24;12.77;;;7.63;;
41043;SDS011;51680;49.806;18.774;2023-05-07T00:49:30;9.90;;;7.80;;
41043;SDS011;51680;49.806;18.774;2023-05-07T00:52:38;14.77;;;8.00;;
41043;SDS011;51680;49.806;18.774;2023-05-07T00:55:41;14.23;;;8.93;;
41043;SDS011;51680;49.806;18.774;2023-05-07T00:58:43;12.30;;;9.10;;
41043;SDS011;51680;49.806;18.774;2023-05-07T01:01:45;13.13;;;9.07;;
41043;SDS011;51680;49.806;18.774;2023-05-07T01:04:48;12.77;;;9.45;;
41043;SDS011;51680;49.806;18.774;2023-05-07T01:07:50;16.73;;;9.98;;
41043;SDS011;51680;49.806;18.774;2023-05-07T01:10:54;14.23;;;9.63;;
41043;SDS011;51680;49.806;18.774;2023-05-07T01:13:57;12.77;;;9.30;;
41043;SDS011;51680;49.806;18.774;2023-05-07T01:17:00;15.65;;;9.27;;
41043;SDS011;51680;49.806;18.774;2023-05-07T01:20:05;13.85;;;9.20;;
41043;SDS011;51680;49.806;18.774;2023-05-07T01:23:09;12.80;;;9.20;;
41043;SDS011;51680;49.806;18.774;2023-05-07T01:26:12;14.40;;;8.52;;
41043;SDS011;51680;49.806;18.774;2023-05-07T01:29:18;14.05;;;8.57;;
41043;SDS011;51680;49.806;18.774;2023-05-07T01:32:21;12.07;;;8.55;;
41043;SDS011;51680;49.806;18.774;2023-05-07T01:35:29;11.68;;;8.32;;
41043;SDS011;51680;49.806;18.774;2023-05-07T01:38:36;11.30;;;7.88;;
41043;SDS011;51680;49.806;18.774;2023-05-07T01:41:40;12.88;;;7.80;;
41043;SDS011;51680;49.806;18.774;2023-05-07T01:44:43;11.07;;;8.07;;
41043;SDS011;51680;49.806;18.774;2023-05-07T01:47:45;13.02;;;8.32;;
41043;SDS011;51680;49.806;18.774;2023-05-07T01:50:47;11.07;;;8.05;;
41043;SDS011;51680;49.806;18.774;2023-05-07T01:53:51;11.57;;;8.15;;
41043;SDS011;51680;49.806;18.774;2023-05-07T01:56:55;11.77;;;8.27;;
41043;SDS011;51680;49.806;18.774;2023-05-07T01:59:58;9.73;;;7.57;;
41043;SDS011;51680;49.806;18.774;2023-05-07T02:02:59;12.25;;;7.90;;
41043;SDS011;51680;49.806;18.774;2023-05-07T02:06:10;11.35;;;8.10;;
41043;SDS011;51680;49.806;18.774;2023-05-07T02:09:15;9.23;;;7.28;;
41043;SDS011;51680;49.806;18.774;2023-05-07T02:12:19;12.05;;;7.93;;
41043;SDS011;51680;49.806;18.774;2023-05-07T02:15:21;10.05;;;7.80;;
41043;SDS011;51680;49.806;18.774;2023-05-07T02:18:23;12.25;;;7.88;;
41043;SDS011;51680;49.806;18.774;2023-05-07T02:21:25;12.50;;;8.20;;
41043;SDS011;51680;49.806;18.774;2023-05-07T02:24:28;10.82;;;8.48;;
41043;SDS011;51680;49.806;18.774;2023-05-07T02:27:30;12.30;;;8.52;;
41043;SDS011;51680;49.806;18.774;2023-05-07T02:30:32;17.60;;;9.23;;
41043;SDS011;51680;49.806;18.774;2023-05-07T02:33:34;13.88;;;8.85;;
41043;SDS011;51680;49.806;18.774;2023-05-07T02:36:39;13.35;;;8.60;;
41043;SDS011;51680;49.806;18.774;2023-05-07T02:39:46;12.77;;;8.82;;
41043;SDS011;51680;49.806;18.774;2023-05-07T02:42:48;12.38;;;8.98;;
41043;SDS011;51680;49.806;18.774;2023-05-07T02:45:49;12.35;;;8.82;;
41043;SDS011;51680;49.806;18.774;2023-05-07T02:49:02;15.52;;;9.38;;
41043;SDS011;51680;49.806;18.774;2023-05-07T02:52:04;12.90;;;9.45;;
41043;SDS011;51680;49.806;18.774;2023-05-07T02:55:08;12.35;;;9.70;;
41043;SDS011;51680;49.806;18.774;2023-05-07T03:01:14;15.07;;;9.70;;
41043;SDS011;51680;49.806;18.774;2023-05-07T03:04:34;15.82;;;9.88;;
41043;SDS011;51680;49.806;18.774;2023-05-07T03:07:36;14.52;;;10.65;;
41043;SDS011;51680;49.806;18.774;2023-05-07T03:10:39;18.30;;;11.07;;
41043;SDS011;51680;49.806;18.774;2023-05-07T03:13:41;20.08;;;11.73;;
41043;SDS011;51680;49.806;18.774;2023-05-07T03:16:43;18.27;;;12.70;;
41043;SDS011;51680;49.806;18.774;2023-05-07T03:19:44;17.60;;;12.30;;
41043;SDS011;51680;49.806;18.774;2023-05-07T03:22:46;20.75;;;14.00;;
41043;SDS011;51680;49.806;18.774;2023-05-07T03:26:08;18.70;;;13.05;;
41043;SDS011;51680;49.806;18.774;2023-05-07T03:29:10;21.83;;;14.93;;
41043;SDS011;51680;49.806;18.774;2023-05-07T03:32:12;20.58;;;13.77;;
41043;SDS011;51680;49.806;18.774;2023-05-07T03:35:14;19.60;;;14.07;;
41043;SDS011;51680;49.806;18.774;2023-05-07T03:38:16;19.50;;;14.70;;
41043;SDS011;51680;49.806;18.774;2023-05-07T03:41:19;19.90;;;15.15;;
41043;SDS011;51680;49.806;18.774;2023-05-07T03:44:21;20.48;;;14.82;;
41043;SDS011;51680;49.806;18.774;2023-05-07T03:47:25;21.83;;;14.45;;
41043;SDS011;51680;49.806;18.774;2023-05-07T03:50:26;21.35;;;15.57;;
41043;SDS011;51680;49.806;18.774;2023-05-07T03:53:28;21.10;;;14.82;;
41043;SDS011;51680;49.806;18.774;2023-05-07T03:56:32;20.35;;;14.85;;
41043;SDS011;51680;49.806;18.774;2023-05-07T03:59:34;22.65;;;15.18;;
41043;SDS011;51680;49.806;18.774;2023-05-07T04:02:36;24.08;;;15.65;;
41043;SDS011;51680;49.806;18.774;2023-05-07T04:05:38;25.27;;;16.67;;
41043;SDS011;51680;49.806;18.774;2023-05-07T04:08:41;21.65;;;15.35;;
41043;SDS011;51680;49.806;18.774;2023-05-07T04:11:44;23.48;;;16.10;;
41043;SDS011;51680;49.806;18.774;2023-05-07T04:14:46;23.93;;;16.00;;
41043;SDS011;51680;49.806;18.774;2023-05-07T04:17:48;20.98;;;15.32;;
41043;SDS011;51680;49.806;18.774;2023-05-07T04:20:53;21.63;;;15.18;;
41043;SDS011;51680;49.806;18.774;2023-05-07T04:23:55;21.23;;;15.25;;
41043;SDS011;51680;49.806;18.774;2023-05-07T04:26:59;22.98;;;15.93;;
41043;SDS011;51680;49.806;18.774;2023-05-07T04:30:02;22.75;;;16.58;;
41043;SDS011;51680;49.806;18.774;2023-05-07T04:33:09;26.05;;;17.48;;
41043;SDS011;51680;49.806;18.774;2023-05-07T04:36:12;26.67;;;17.90;;
41043;SDS011;51680;49.806;18.774;2023-05-07T04:39:23;30.42;;;18.45;;
41043;SDS011;51680;49.806;18.774;2023-05-07T04:42:27;29.45;;;18.80;;
41043;SDS011;51680;49.806;18.774;2023-05-07T04:45:29;26.33;;;18.95;;
41043;SDS011;51680;49.806;18.774;2023-05-07T04:48:32;28.55;;;18.08;;
41043;SDS011;51680;49.806;18.774;2023-05-07T04:51:36;25.83;;;17.45;;
41043;SDS011;51680;49.806;18.774;2023-05-07T04:54:39;25.38;;;17.55;;
41043;SDS011;51680;49.806;18.774;2023-05-07T04:57:43;24.17;;;17.70;;
41043;SDS011;51680;49.806;18.774;2023-05-07T05:00:48;24.50;;;17.65;;
41043;SDS011;51680;49.806;18.774;2023-05-07T05:03:49;26.33;;;18.13;;
41043;SDS011;51680;49.806;18.774;2023-05-07T05:06:53;27.25;;;17.92;;
41043;SDS011;51680;49.806;18.774;2023-05-07T05:09:55;24.35;;;17.40;;
41043;SDS011;51680;49.806;18.774;2023-05-07T05:13:00;23.83;;;16.02;;
41043;SDS011;51680;49.806;18.774;2023-05-07T05:16:02;22.23;;;14.18;;
41043;SDS011;51680;49.806;18.774;2023-05-07T05:19:06;19.58;;;12.75;;
41043;SDS011;51680;49.806;18.774;2023-05-07T05:22:11;19.83;;;12.40;;
41043;SDS011;51680;49.806;18.774;2023-05-07T05:25:13;15.88;;;11.40;;
41043;SDS011;51680;49.806;18.774;2023-05-07T05:28:16;15.77;;;11.30;;
41043;SDS011;51680;49.806;18.774;2023-05-07T05:31:18;16.00;;;10.53;;
41043;SDS011;51680;49.806;18.774;2023-05-07T05:34:23;16.10;;;9.50;;
41043;SDS011;51680;49.806;18.774;2023-05-07T05:37:25;16.10;;;10.07;;
41043;SDS011;51680;49.806;18.774;2023-05-07T05:40:27;14.68;;;9.57;;
41043;SDS011;51680;49.806;18.774;2023-05-07T05:43:31;14.57;;;9.15;;
41043;SDS011;51680;49.806;18.774;2023-05-07T05:46:34;13.93;;;9.20;;
41043;SDS011;51680;49.806;18.774;2023-05-07T05:49:37;14.95;;;9.20;;
41043;SDS011;51680;49.806;18.774;2023-05-07T05:52:40;11.60;;;8.38;;
41043;SDS011;51680;49.806;18.774;2023-05-07T05:55:43;16.13;;;8.60;;
41043;SDS011;51680;49.806;18.774;2023-05-07T05:58:47;17.17;;;8.87;;
41043;SDS011;51680;49.806;18.774;2023-05-07T06:01:49;14.65;;;10.55;;
41043;SDS011;51680;49.806;18.774;2023-05-07T06:04:51;19.48;;;12.88;;
41043;SDS011;51680;49.806;18.774;2023-05-07T06:07:55;20.17;;;10.85;;
41043;SDS011;51680;49.806;18.774;2023-05-07T06:10:58;15.40;;;10.63;;
41043;SDS011;51680;49.806;18.774;2023-05-07T06:14:02;12.15;;;8.35;;
41043;SDS011;51680;49.806;18.774;2023-05-07T06:17:05;16.00;;;9.13;;
41043;SDS011;51680;49.806;18.774;2023-05-07T06:20:07;12.52;;;8.98;;
41043;SDS011;51680;49.806;18.774;2023-05-07T06:23:10;15.60;;;10.35;;
41043;SDS011;51680;49.806;18.774;2023-05-07T06:26:12;29.67;;;17.73;;
41043;SDS011;51680;49.806;18.774;2023-05-07T06:29:18;18.65;;;11.95;;
41043;SDS011;51680;49.806;18.774;2023-05-07T06:32:20;20.42;;;11.45;;
41043;SDS011;51680;49.806;18.774;2023-05-07T06:35:22;14.48;;;9.50;;
41043;SDS011;51680;49.806;18.774;2023-05-07T06:38:23;17.20;;;9.10;;
41043;SDS011;51680;49.806;18.774;2023-05-07T06:41:25;14.65;;;9.18;;
41043;SDS011;51680;49.806;18.774;2023-05-07T06:44:30;15.20;;;9.65;;
41043;SDS011;51680;49.806;18.774;2023-05-07T06:47:58;15.70;;;9.00;;
41043;SDS011;51680;49.806;18.774;2023-05-07T06:51:01;17.10;;;9.43;;
41043;SDS011;51680;49.806;18.774;2023-05-07T06:54:04;18.58;;;11.68;;
41043;SDS011;51680;49.806;18.774;2023-05-07T06:57:08;17.23;;;10.77;;
41043;SDS011;51680;49.806;18.774;2023-05-07T07:00:12;20.42;;;12.02;;
41043;SDS011;51680;49.806;18.774;2023-05-07T07:03:21;22.55;;;12.70;;
41043;SDS011;51680;49.806;18.774;2023-05-07T07:06:23;19.73;;;13.73;;
41043;SDS011;51680;49.806;18.774;2023-05-07T07:09:26;25.13;;;18.47;;
41043;SDS011;51680;49.806;18.774;2023-05-07T07:12:28;27.42;;;16.20;;
41043;SDS011;51680;49.806;18.774;2023-05-07T07:15:32;21.80;;;12.90;;
41043;SDS011;51680;49.806;18.774;2023-05-07T07:18:33;18.33;;;10.50;;
41043;SDS011;51680;49.806;18.774;2023-05-07T07:21:36;19.27;;;12.45;;
41043;SDS011;51680;49.806;18.774;2023-05-07T07:24:38;19.67;;;12.93;;
41043;SDS011;51680;49.806;18.774;2023-05-07T07:27:42;23.30;;;13.25;;
41043;SDS011;51680;49.806;18.774;2023-05-07T07:30:47;19.17;;;12.80;;
41043;SDS011;51680;49.806;18.774;2023-05-07T07:33:51;17.95;;;12.30;;
41043;SDS011;51680;49.806;18.774;2023-05-07T07:36:53;19.13;;;12.20;;
41043;SDS011;51680;49.806;18.774;2023-05-07T07:39:55;18.02;;;11.85;;
41043;SDS011;51680;49.806;18.774;2023-05-07T07:42:57;35.25;;;27.55;;
41043;SDS011;51680;49.806;18.774;2023-05-07T07:46:00;14.68;;;10.88;;
41043;SDS011;51680;49.806;18.774;2023-05-07T07:49:03;19.10;;;13.07;;
41043;SDS011;51680;49.806;18.774;2023-05-07T07:52:05;16.33;;;12.25;;
41043;SDS011;51680;49.806;18.774;2023-05-07T07:55:10;36.20;;;28.90;;
41043;SDS011;51680;49.806;18.774;2023-05-07T07:58:13;24.83;;;12.27;;
41043;SDS011;51680;49.806;18.774;2023-05-07T08:01:16;16.63;;;9.98;;
41043;SDS011;51680;49.806;18.774;2023-05-07T08:04:20;17.92;;;13.05;;
41043;SDS011;51680;49.806;18.774;2023-05-07T08:07:23;14.88;;;10.48;;
41043;SDS011;51680;49.806;18.774;2023-05-07T08:10:24;12.90;;;9.20;;
41043;SDS011;51680;49.806;18.774;2023-05-07T08:13:32;18.05;;;14.18;;
41043;SDS011;51680;49.806;18.774;2023-05-07T08:16:36;19.42;;;13.98;;
41043;SDS011;51680;49.806;18.774;2023-05-07T08:19:38;19.00;;;11.05;;
41043;SDS011;51680;49.806;18.774;2023-05-07T08:22:42;17.33;;;12.75;;
41043;SDS011;51680;49.806;18.774;2023-05-07T08:25:44;19.65;;;12.98;;
41043;SDS011;51680;49.806;18.774;2023-05-07T08:28:47;12.13;;;9.05;;
41043;SDS011;51680;49.806;18.774;2023-05-07T08:31:50;16.10;;;11.00;;
41043;SDS011;51680;49.806;18.774;2023-05-07T08:34:52;14.30;;;9.30;;
41043;SDS011;51680;49.806;18.774;2023-05-07T08:37:54;16.83;;;9.93;;
41043;SDS011;51680;49.806;18.774;2023-05-07T08:40:56;25.15;;;18.00;;
41043;SDS011;51680;49.806;18.774;2023-05-07T08:43:59;18.67;;;14.35;;
41043;SDS011;51680;49.806;18.774;2023-05-07T08:47:06;9.48;;;7.25;;
41043;SDS011;51680;49.806;18.774;2023-05-07T08:50:11;14.43;;;9.50;;
41043;SDS011;51680;49.806;18.774;2023-05-07T08:53:13;17.98;;;11.93;;
41043;SDS011;51680;49.806;18.774;2023-05-07T08:56:18;13.20;;;10.68;;
41043;SDS011;51680;49.806;18.774;2023-05-07T08:59:21;14.35;;;9.80;;
41043;SDS011;51680;49.806;18.774;2023-05-07T09:02:24;9.55;;;6.97;;
41043;SDS011;51680;49.806;18.774;2023-05-07T09:05:27;9.85;;;5.93;;
41043;SDS011;51680;49.806;18.774;2023-05-07T09:08:29;14.15;;;11.20;;
41043;SDS011;51680;49.806;18.774;2023-05-07T09:11:34;13.82;;;8.73;;
41043;SDS011;51680;49.806;18.774;2023-05-07T09:14:36;12.75;;;7.43;;
41043;SDS011;51680;49.806;18.774;2023-05-07T09:17:40;8.43;;;6.38;;
41043;SDS011;51680;49.806;18.774;2023-05-07T09:20:42;8.75;;;5.30;;
41043;SDS011;51680;49.806;18.774;2023-05-07T09:23:45;8.63;;;5.85;;
41043;SDS011;51680;49.806;18.774;2023-05-07T09:26:48;10.75;;;6.95;;
41043;SDS011;51680;49.806;18.774;2023-05-07T09:29:50;9.40;;;4.97;;
41043;SDS011;51680;49.806;18.774;2023-05-07T09:32:53;8.65;;;5.70;;
41043;SDS011;51680;49.806;18.774;2023-05-07T09:35:56;8.38;;;5.88;;
41043;SDS011;51680;49.806;18.774;2023-05-07T09:38:59;10.23;;;7.10;;
41043;SDS011;51680;49.806;18.774;2023-05-07T09:42:01;17.42;;;10.02;;
41043;SDS011;51680;49.806;18.774;2023-05-07T09:45:08;12.98;;;8.52;;
41043;SDS011;51680;49.806;18.774;2023-05-07T09:48:13;12.05;;;7.35;;
41043;SDS011;51680;49.806;18.774;2023-05-07T09:51:22;13.75;;;7.30;;
41043;SDS011;51680;49.806;18.774;2023-05-07T09:54:28;10.00;;;6.72;;
41043;SDS011;51680;49.806;18.774;2023-05-07T09:57:32;14.68;;;7.85;;
41043;SDS011;51680;49.806;18.774;2023-05-07T10:00:39;14.18;;;8.65;;
41043;SDS011;51680;49.806;18.774;2023-05-07T10:03:47;11.93;;;7.85;;
41043;SDS011;51680;49.806;18.774;2023-05-07T10:06:51;13.95;;;8.82;;
41043;SDS011;51680;49.806;18.774;2023-05-07T10:09:55;15.43;;;9.20;;
41043;SDS011;51680;49.806;18.774;2023-05-07T10:13:04;15.32;;;8.15;;
41043;SDS011;51680;49.806;18.774;2023-05-07T10:16:11;15.20;;;8.20;;
41043;SDS011;51680;49.806;18.774;2023-05-07T10:19:19;13.60;;;9.27;;
41043;SDS011;51680;49.806;18.774;2023-05-07T10:22:26;13.45;;;7.80;;
41043;SDS011;51680;49.806;18.774;2023-05-07T10:25:30;16.08;;;8.98;;
41043;SDS011;51680;49.806;18.774;2023-05-07T10:28:41;13.38;;;8.70;;
41043;SDS011;51680;49.806;18.774;2023-05-07T10:31:49;18.40;;;10.27;;
41043;SDS011;51680;49.806;18.774;2023-05-07T10:34:58;14.82;;;10.15;;
41043;SDS011;51680;49.806;18.774;2023-05-07T10:38:06;13.88;;;9.48;;
41043;SDS011;51680;49.806;18.774;2023-05-07T10:41:11;12.57;;;8.75;;
41043;SDS011;51680;49.806;18.774;2023-05-07T10:44:25;14.18;;;8.32;;
41043;SDS011;51680;49.806;18.774;2023-05-07T10:47:29;12.70;;;8.20;;
41043;SDS011;51680;49.806;18.774;2023-05-07T10:50:35;13.68;;;8.20;;
41043;SDS011;51680;49.806;18.774;2023-05-07T10:53:39;11.23;;;6.68;;
41043;SDS011;51680;49.806;18.774;2023-05-07T10:56:49;17.70;;;10.75;;
41043;SDS011;51680;49.806;18.774;2023-05-07T11:07:37;13.48;;;8.65;;
41043;SDS011;51680;49.806;18.774;2023-05-07T11:10:52;13.30;;;8.95;;
41043;SDS011;51680;49.806;18.774;2023-05-07T11:14:13;15.80;;;9.77;;
41043;SDS011;51680;49.806;18.774;2023-05-07T11:17:23;14.90;;;8.60;;
41043;SDS011;51680;49.806;18.774;2023-05-07T11:20:46;13.65;;;7.32;;
41043;SDS011;51680;49.806;18.774;2023-05-07T11:24:06;11.63;;;8.13;;
41043;SDS011;51680;49.806;18.774;2023-05-07T11:27:24;11.43;;;6.65;;
41043;SDS011;51680;49.806;18.774;2023-05-07T11:30:28;10.48;;;6.13;;
41043;SDS011;51680;49.806;18.774;2023-05-07T11:33:30;9.98;;;5.78;;
41043;SDS011;51680;49.806;18.774;2023-05-07T11:36:37;9.82;;;6.60;;
41043;SDS011;51680;49.806;18.774;2023-05-07T11:39:47;9.52;;;6.32;;
41043;SDS011;51680;49.806;18.774;2023-05-07T11:42:49;7.28;;;5.68;;
41043;SDS011;51680;49.806;18.774;2023-05-07T11:45:50;7.45;;;4.43;;
41043;SDS011;51680;49.806;18.774;2023-05-07T11:48:52;7.75;;;4.40;;
41043;SDS011;51680;49.806;18.774;2023-05-07T11:51:54;6.38;;;4.03;;
41043;SDS011;51680;49.806;18.774;2023-05-07T11:54:57;7.25;;;4.65;;
41043;SDS011;51680;49.806;18.774;2023-05-07T11:58:00;6.28;;;4.57;;
41043;SDS011;51680;49.806;18.774;2023-05-07T12:01:02;8.88;;;5.32;;
41043;SDS011;51680;49.806;18.774;2023-05-07T12:04:04;9.63;;;6.20;;
41043;SDS011;51680;49.806;18.774;2023-05-07T12:07:10;10.20;;;6.70;;
41043;SDS011;51680;49.806;18.774;2023-05-07T12:10:15;10.82;;;7.55;;
41043;SDS011;51680;49.806;18.774;2023-05-07T12:13:16;12.55;;;7.47;;
41043;SDS011;51680;49.806;18.774;2023-05-07T12:16:18;10.57;;;6.80;;
41043;SDS011;51680;49.806;18.774;2023-05-07T12:19:20;11.45;;;7.72;;
41043;SDS011;51680;49.806;18.774;2023-05-07T12:22:23;11.60;;;8.80;;
41043;SDS011;51680;49.806;18.774;2023-05-07T12:25:26;10.38;;;7.53;;
41043;SDS011;51680;49.806;18.774;2023-05-07T12:28:28;10.15;;;7.25;;
41043;SDS011;51680;49.806;18.774;2023-05-07T12:31:30;12.63;;;7.60;;
41043;SDS011;51680;49.806;18.774;2023-05-07T12:34:32;12.15;;;9.00;;
41043;SDS011;51680;49.806;18.774;2023-05-07T12:37:34;9.43;;;7.40;;
41043;SDS011;51680;49.806;18.774;2023-05-07T12:40:39;9.90;;;7.68;;
41043;SDS011;51680;49.806;18.774;2023-05-07T12:43:43;9.10;;;6.28;;
41043;SDS011;51680;49.806;18.774;2023-05-07T12:46:46;10.13;;;7.60;;
41043;SDS011;51680;49.806;18.774;2023-05-07T12:49:48;10.15;;;7.00;;
41043;SDS011;51680;49.806;18.774;2023-05-07T12:52:49;11.77;;;7.80;;
41043;SDS011;51680;49.806;18.774;2023-05-07T12:55:53;11.10;;;7.97;;
41043;SDS011;51680;49.806;18.774;2023-05-07T12:58:57;11.95;;;7.82;;
41043;SDS011;51680;49.806;18.774;2023-05-07T13:01:59;10.52;;;7.68;;
41043;SDS011;51680;49.806;18.774;2023-05-07T13:05:00;10.43;;;7.15;;
41043;SDS011;51680;49.806;18.774;2023-05-07T13:08:02;11.27;;;7.38;;
41043;SDS011;51680;49.806;18.774;2023-05-07T13:11:06;11.40;;;8.40;;
41043;SDS011;51680;49.806;18.774;2023-05-07T13:14:09;13.75;;;8.70;;
41043;SDS011;51680;49.806;18.774;2023-05-07T13:17:10;11.75;;;9.25;;
41043;SDS011;51680;49.806;18.774;2023-05-07T13:20:12;11.95;;;8.82;;
41043;SDS011;51680;49.806;18.774;2023-05-07T13:23:15;10.77;;;8.27;;
41043;SDS011;51680;49.806;18.774;2023-05-07T13:26:18;12.68;;;8.13;;
41043;SDS011;51680;49.806;18.774;2023-05-07T13:29:20;12.10;;;8.43;;
41043;SDS011;51680;49.806;18.774;2023-05-07T13:32:25;9.20;;;7.47;;
41043;SDS011;51680;49.806;18.774;2023-05-07T13:35:27;14.02;;;8.25;;
41043;SDS011;51680;49.806;18.774;2023-05-07T13:38:29;10.68;;;8.13;;
41043;SDS011;51680;49.806;18.774;2023-05-07T13:41:32;10.63;;;8.13;;
41043;SDS011;51680;49.806;18.774;2023-05-07T13:44:34;12.90;;;8.70;;
41043;SDS011;51680;49.806;18.774;2023-05-07T13:47:35;11.30;;;7.82;;
41043;SDS011;51680;49.806;18.774;2023-05-07T13:50:37;10.65;;;7.70;;
41043;SDS011;51680;49.806;18.774;2023-05-07T13:53:39;11.75;;;7.90;;
41043;SDS011;51680;49.806;18.774;2023-05-07T13:56:42;14.68;;;9.85;;
41043;SDS011;51680;49.806;18.774;2023-05-07T13:59:44;14.70;;;10.17;;
41043;SDS011;51680;49.806;18.774;2023-05-07T14:02:45;17.75;;;10.65;;
41043;SDS011;51680;49.806;18.774;2023-05-07T14:05:47;16.23;;;10.82;;
41043;SDS011;51680;49.806;18.774;2023-05-07T14:08:49;7.47;;;5.07;;
41043;SDS011;51680;49.806;18.774;2023-05-07T14:11:52;10.13;;;6.63;;
41043;SDS011;51680;49.806;18.774;2023-05-07T14:14:54;10.33;;;6.73;;
41043;SDS011;51680;49.806;18.774;2023-05-07T14:17:56;11.43;;;7.80;;
41043;SDS011;51680;49.806;18.774;2023-05-07T14:20:59;11.38;;;7.47;;
41043;SDS011;51680;49.806;18.774;2023-05-07T14:24:00;10.93;;;7.68;;
41043;SDS011;51680;49.806;18.774;2023-05-07T14:27:04;12.70;;;7.97;;
41043;SDS011;51680;49.806;18.774;2023-05-07T14:30:06;13.25;;;8.32;;
41043;SDS011;51680;49.806;18.774;2023-05-07T14:33:08;11.32;;;7.40;;
41043;SDS011;51680;49.806;18.774;2023-05-07T14:36:10;12.60;;;8.25;;
41043;SDS011;51680;49.806;18.774;2023-05-07T14:39:12;11.70;;;7.25;;
41043;SDS011;51680;49.806;18.774;2023-05-07T14:42:15;12.32;;;8.63;;
41043;SDS011;51680;49.806;18.774;2023-05-07T14:45:17;12.70;;;8.52;;
41043;SDS011;51680;49.806;18.774;2023-05-07T14:48:18;13.10;;;8.68;;
41043;SDS011;51680;49.806;18.774;2023-05-07T14:51:20;13.23;;;8.98;;
41043;SDS011;51680;49.806;18.774;2023-05-07T14:54:22;11.95;;;8.30;;
41043;SDS011;51680;49.806;18.774;2023-05-07T14:57:25;12.20;;;8.63;;
41043;SDS011;51680;49.806;18.774;2023-05-07T15:00:27;13.13;;;7.30;;
41043;SDS011;51680;49.806;18.774;2023-05-07T15:03:29;10.73;;;7.90;;
41043;SDS011;51680;49.806;18.774;2023-05-07T15:06:31;14.73;;;7.65;;
41043;SDS011;51680;49.806;18.774;2023-05-07T15:09:33;10.73;;;7.20;;
41043;SDS011;51680;49.806;18.774;2023-05-07T15:12:36;14.45;;;8.13;;
41043;SDS011;51680;49.806;18.774;2023-05-07T15:15:38;12.30;;;7.87;;
41043;SDS011;51680;49.806;18.774;2023-05-07T15:18:40;11.32;;;7.95;;
41043;SDS011;51680;49.806;18.774;2023-05-07T15:21:42;13.05;;;7.60;;
41043;SDS011;51680;49.806;18.774;2023-05-07T15:24:43;9.80;;;6.88;;
41043;SDS011;51680;49.806;18.774;2023-05-07T15:27:47;11.75;;;7.20;;
41043;SDS011;51680;49.806;18.774;2023-05-07T15:30:48;13.97;;;6.93;;
41043;SDS011;51680;49.806;18.774;2023-05-07T15:33:50;9.45;;;5.78;;
41043;SDS011;51680;49.806;18.774;2023-05-07T15:36:53;7.30;;;4.55;;
41043;SDS011;51680;49.806;18.774;2023-05-07T15:42:59;10.95;;;6.70;;
41043;SDS011;51680;49.806;18.774;2023-05-07T15:46:02;9.63;;;5.95;;
41043;SDS011;51680;49.806;18.774;2023-05-07T15:49:23;12.25;;;6.45;;
41043;SDS011;51680;49.806;18.774;2023-05-07T15:52:25;6.70;;;3.83;;
41043;SDS011;51680;49.806;18.774;2023-05-07T15:55:27;10.15;;;5.15;;
41043;SDS011;51680;49.806;18.774;2023-05-07T15:58:31;7.32;;;4.35;;
41043;SDS011;51680;49.806;18.774;2023-05-07T16:01:33;10.20;;;5.10;;
41043;SDS011;51680;49.806;18.774;2023-05-07T16:04:35;7.65;;;4.78;;
41043;SDS011;51680;49.806;18.774;2023-05-07T16:07:37;6.55;;;3.88;;
41043;SDS011;51680;49.806;18.774;2023-05-07T16:10:38;6.97;;;3.35;;
41043;SDS011;51680;49.806;18.774;2023-05-07T16:13:42;7.05;;;3.53;;
41043;SDS011;51680;49.806;18.774;2023-05-07T16:16:43;11.60;;;5.27;;
41043;SDS011;51680;49.806;18.774;2023-05-07T16:19:45;8.68;;;4.25;;
41043;SDS011;51680;49.806;18.774;2023-05-07T16:22:47;8.18;;;4.75;;
41043;SDS011;51680;49.806;18.774;2023-05-07T16:25:48;16.52;;;6.75;;
41043;SDS011;51680;49.806;18.774;2023-05-07T16:28:51;10.95;;;5.60;;
41043;SDS011;51680;49.806;18.774;2023-05-07T16:31:53;11.98;;;6.90;;
41043;SDS011;51680;49.806;18.774;2023-05-07T16:34:55;10.70;;;6.15;;
41043;SDS011;51680;49.806;18.774;2023-05-07T16:37:57;10.95;;;6.40;;
41043;SDS011;51680;49.806;18.774;2023-05-07T16:40:58;12.45;;;6.38;;
41043;SDS011;51680;49.806;18.774;2023-05-07T16:44:02;7.47;;;4.50;;
41043;SDS011;51680;49.806;18.774;2023-05-07T16:47:03;8.40;;;4.80;;
41043;SDS011;51680;49.806;18.774;2023-05-07T16:50:24;8.32;;;5.13;;
41043;SDS011;51680;49.806;18.774;2023-05-07T16:53:26;7.93;;;4.82;;
41043;SDS011;51680;49.806;18.774;2023-05-07T16:56:27;5.30;;;3.47;;
41043;SDS011;51680;49.806;18.774;2023-05-07T16:59:31;6.07;;;3.70;;
41043;SDS011;51680;49.806;18.774;2023-05-07T17:02:32;10.20;;;5.57;;
41043;SDS011;51680;49.806;18.774;2023-05-07T17:05:35;5.53;;;3.08;;
41043;SDS011;51680;49.806;18.774;2023-05-07T17:08:37;7.50;;;4.75;;
41043;SDS011;51680;49.806;18.774;2023-05-07T17:11:39;10.52;;;5.55;;
41043;SDS011;51680;49.806;18.774;2023-05-07T17:14:42;10.30;;;6.50;;
41043;SDS011;51680;49.806;18.774;2023-05-07T17:17:44;9.50;;;5.73;;
41043;SDS011;51680;49.806;18.774;2023-05-07T17:20:45;9.65;;;5.78;;
41043;SDS011;51680;49.806;18.774;2023-05-07T17:23:47;9.63;;;5.18;;
41043;SDS011;51680;49.806;18.774;2023-05-07T17:26:49;10.07;;;6.32;;
41043;SDS011;51680;49.806;18.774;2023-05-07T17:29:52;5.85;;;3.00;;
41043;SDS011;51680;49.806;18.774;2023-05-07T17:32:54;9.88;;;5.50;;
41043;SDS011;51680;49.806;18.774;2023-05-07T17:35:56;6.63;;;4.35;;
41043;SDS011;51680;49.806;18.774;2023-05-07T17:38:58;9.88;;;5.60;;
41043;SDS011;51680;49.806;18.774;2023-05-07T17:41:59;10.20;;;5.60;;
41043;SDS011;51680;49.806;18.774;2023-05-07T17:45:03;10.07;;;6.22;;
41043;SDS011;51680;49.806;18.774;2023-05-07T17:48:05;7.75;;;3.75;;
41043;SDS011;51680;49.806;18.774;2023-05-07T17:51:07;7.93;;;4.40;;
41043;SDS011;51680;49.806;18.774;2023-05-07T17:54:09;8.05;;;5.10;;
41043;SDS011;51680;49.806;18.774;2023-05-07T17:57:11;8.98;;;4.00;;
41043;SDS011;51680;49.806;18.774;2023-05-07T18:00:15;8.38;;;3.83;;
41043;SDS011;51680;49.806;18.774;2023-05-07T18:03:16;8.77;;;5.70;;
41043;SDS011;51680;49.806;18.774;2023-05-07T18:06:18;5.80;;;3.60;;